Time;durP1;ratioP1;P1;durP2;ratioP2;P2;SDS_P1;SDS_P2;PMS_P1;PMS_P2;Temp;Humidity;BMP_temperature;BMP_pressure;BME280_temperature;BME280_humidity;BME280_pressure;Samples;Min_cycle;Max_cycle;Signal;HPM_P1;HPM_P2
2023/02/25 00:01:24;;;;;;;8.25;5.03;;;2.90;99.90;;;;;;5069393;28;20028;-77
2023/02/25 00:03:54;;;;;;;5.85;4.50;;;2.90;99.90;;;;;;5095012;28;20043;-77
2023/02/25 00:06:21;;;;;;;7.82;4.88;;;2.90;99.90;;;;;;5070809;28;20064;-77
2023/02/25 00:08:48;;;;;;;7.40;4.72;;;2.80;99.90;;;;;;5066753;28;20036;-77
2023/02/25 00:11:15;;;;;;;6.68;4.50;;;2.80;99.90;;;;;;5055244;28;20028;-77
2023/02/25 00:13:41;;;;;;;7.45;4.78;;;2.70;99.90;;;;;;5067360;28;20094;-77
2023/02/25 00:16:09;;;;;;;5.38;3.95;;;2.70;99.90;;;;;;5070186;28;20071;-77
2023/02/25 00:18:35;;;;;;;6.97;4.72;;;2.70;99.90;;;;;;5069667;28;20234;-77
2023/02/25 00:21:04;;;;;;;9.02;4.47;;;2.60;99.90;;;;;;5066096;28;20024;-77
2023/02/25 00:23:31;;;;;;;9.00;4.90;;;2.60;99.90;;;;;;5048531;28;20123;-76
2023/02/25 00:25:58;;;;;;;9.10;4.93;;;2.50;99.90;;;;;;5065486;28;20031;-76
2023/02/25 00:28:24;;;;;;;7.80;4.50;;;2.50;99.90;;;;;;5066527;28;20115;-76
2023/02/25 00:30:50;;;;;;;10.57;4.82;;;2.50;99.90;;;;;;5069196;28;20119;-76
2023/02/25 00:33:16;;;;;;;8.63;4.60;;;2.40;99.90;;;;;;5068518;28;20397;-77
2023/02/25 00:35:42;;;;;;;8.38;4.78;;;2.40;99.90;;;;;;5034885;28;20443;-77
2023/02/25 00:38:08;;;;;;;6.97;4.50;;;2.30;99.90;;;;;;5067271;28;20024;-77
2023/02/25 00:40:37;;;;;;;7.82;4.57;;;2.30;99.90;;;;;;5062423;28;20044;-77
2023/02/25 00:43:03;;;;;;;5.95;4.38;;;2.30;99.90;;;;;;5061651;28;20051;-77
2023/02/25 00:45:29;;;;;;;9.02;4.40;;;2.30;99.90;;;;;;5062117;28;20541;-76
2023/02/25 00:47:56;;;;;;;10.07;5.32;;;2.20;99.90;;;;;;5065284;28;20119;-77
2023/02/25 00:50:23;;;;;;;8.27;4.68;;;2.20;99.90;;;;;;5062773;28;20024;-77
2023/02/25 00:52:48;;;;;;;7.63;4.30;;;2.10;99.90;;;;;;5062618;28;20036;-77
2023/02/25 00:55:15;;;;;;;7.22;4.10;;;2.10;99.90;;;;;;5068504;28;20032;-77
2023/02/25 00:57:42;;;;;;;7.10;4.30;;;2.00;99.90;;;;;;5068874;28;20056;-77
2023/02/25 01:00:14;;;;;;;6.47;4.20;;;2.00;99.90;;;;;;5052114;28;20036;-76
2023/02/25 01:02:44;;;;;;;6.47;4.38;;;1.90;99.90;;;;;;5069455;28;20036;-78
2023/02/25 01:05:13;;;;;;;7.57;4.47;;;1.90;99.90;;;;;;5051999;28;20052;-77
2023/02/25 01:07:40;;;;;;;7.75;4.15;;;1.90;99.90;;;;;;5065099;28;20040;-77
2023/02/25 01:10:07;;;;;;;8.23;4.30;;;1.90;99.90;;;;;;5066659;28;20392;-77
2023/02/25 01:12:32;;;;;;;8.15;4.80;;;1.80;99.90;;;;;;5068317;28;20024;-77
2023/02/25 01:14:58;;;;;;;7.70;4.03;;;1.80;99.90;;;;;;5063874;28;20075;-77
2023/02/25 01:17:25;;;;;;;10.85;4.40;;;1.80;99.90;;;;;;5064965;28;20029;-77
2023/02/25 01:19:50;;;;;;;38.15;5.53;;;1.80;99.90;;;;;;5064429;28;20040;-77
2023/02/25 01:22:16;;;;;;;8.88;4.10;;;1.80;99.90;;;;;;5048910;28;20067;-76
2023/02/25 01:24:42;;;;;;;6.45;4.00;;;1.80;99.90;;;;;;5068760;28;20036;-77
2023/02/25 01:27:08;;;;;;;10.52;4.55;;;1.90;99.90;;;;;;5068188;28;20025;-77
2023/02/25 01:29:38;;;;;;;10.40;4.78;;;1.80;99.90;;;;;;5065814;28;20431;-77
2023/02/25 01:32:05;;;;;;;7.68;4.60;;;1.90;99.90;;;;;;5068539;28;20025;-77
2023/02/25 01:34:31;;;;;;;12.23;4.80;;;1.90;99.90;;;;;;5049024;28;20037;-77
2023/02/25 01:37:00;;;;;;;16.98;5.60;;;2.00;99.90;;;;;;5062553;28;20389;-77
2023/02/25 01:39:28;;;;;;;10.48;5.03;;;2.00;99.90;;;;;;5045579;28;20036;-77
2023/02/25 01:41:56;;;;;;;9.68;5.43;;;2.00;99.90;;;;;;5060999;28;20396;-77
2023/02/25 01:44:24;;;;;;;9.55;5.03;;;2.00;99.90;;;;;;5066450;28;20048;-77
2023/02/25 01:46:52;;;;;;;13.35;5.40;;;2.10;99.90;;;;;;5055332;28;20489;-77
2023/02/25 01:49:39;;;;;;;8.75;5.35;;;2.10;99.90;;;;;;5066455;28;20523;-78
2023/02/25 01:52:15;;;;;;;9.20;5.20;;;2.10;99.90;;;;;;5050877;28;20037;-76
2023/02/25 01:54:44;;;;;;;12.27;5.30;;;2.20;99.90;;;;;;5063132;28;20032;-77
2023/02/25 01:57:11;;;;;;;9.43;5.20;;;2.10;99.90;;;;;;5069992;28;20028;-77
2023/02/25 01:59:40;;;;;;;11.15;4.55;;;2.20;99.90;;;;;;5060338;28;20382;-76
2023/02/25 02:02:12;;;;;;;10.38;4.88;;;2.20;99.90;;;;;;5064772;28;20136;-76
2023/02/25 02:04:41;;;;;;;11.63;5.10;;;2.20;99.90;;;;;;5069462;28;20032;-77
2023/02/25 02:07:07;;;;;;;7.38;4.40;;;2.20;99.90;;;;;;5067975;28;20040;-77
2023/02/25 02:09:33;;;;;;;7.95;4.55;;;2.20;99.90;;;;;;5072384;28;20077;-77
2023/02/25 02:12:03;;;;;;;8.65;4.30;;;2.20;99.90;;;;;;5054322;28;20043;-77
2023/02/25 02:14:40;;;;;;;6.68;4.47;;;2.20;99.90;;;;;;5072561;28;20039;-77
2023/02/25 02:17:27;;;;;;;10.02;4.28;;;2.30;99.90;;;;;;5071354;28;20032;-77
2023/02/25 02:20:33;;;;;;;8.57;3.78;;;2.20;99.90;;;;;;5079396;28;20029;-77
2023/02/25 02:23:22;;;;;;;11.02;3.55;;;2.20;99.90;;;;;;5044482;28;20045;-77
2023/02/25 02:26:32;;;;;;;8.18;4.18;;;2.20;99.90;;;;;;5067861;28;20048;-76
2023/02/25 02:29:21;;;;;;;7.72;3.92;;;2.30;99.90;;;;;;5058826;28;20060;-77
2023/02/25 02:31:57;;;;;;;6.38;3.30;;;2.20;99.90;;;;;;5070960;28;20116;-77
2023/02/25 02:34:28;;;;;;;9.55;3.80;;;2.20;99.90;;;;;;5071046;28;20493;-77
2023/02/25 02:37:23;;;;;;;8.52;3.50;;;2.20;99.90;;;;;;5066561;28;20052;-77
2023/02/25 02:40:08;;;;;;;8.88;3.85;;;2.20;99.90;;;;;;5065598;28;20128;-76
2023/02/25 02:43:00;;;;;;;9.13;3.85;;;2.20;99.90;;;;;;5071935;28;20035;-77
2023/02/25 02:46:06;;;;;;;8.38;3.78;;;2.20;99.90;;;;;;5054349;28;20420;-77
2023/02/25 02:48:52;;;;;;;11.32;4.20;;;2.20;99.90;;;;;;4992481;28;20070;-77
2023/02/25 02:51:21;;;;;;;;;;;2.20;99.90;;;;;;5048394;28;20045;-77
2023/02/25 02:53:54;;;;;;;12.20;5.20;;;2.20;99.90;;;;;;5068968;28;19908;-77
2023/02/25 02:56:24;;;;;;;7.50;4.03;;;2.20;99.90;;;;;;5083365;28;20046;-77
2023/02/25 02:59:04;;;;;;;10.43;3.67;;;2.10;99.90;;;;;;5072272;28;20031;-77
2023/02/25 03:01:35;;;;;;;8.52;4.20;;;2.10;99.90;;;;;;5051402;28;20025;-77
2023/02/25 03:04:10;;;;;;;9.90;4.28;;;2.20;99.90;;;;;;5065360;28;20035;-77
2023/02/25 03:06:46;;;;;;;10.77;4.22;;;2.20;99.90;;;;;;5069938;28;20029;-76
2023/02/25 03:09:22;;;;;;;7.78;4.45;;;2.10;99.90;;;;;;5053515;28;20035;-76
2023/02/25 03:11:49;;;;;;;8.23;3.95;;;2.10;99.90;;;;;;5071704;28;20381;-77
2023/02/25 03:14:17;;;;;;;7.75;4.03;;;2.10;99.90;;;;;;5052242;28;20062;-76
2023/02/25 03:16:58;;;;;;;5.45;3.63;;;2.10;99.90;;;;;;5063403;28;20029;-76
2023/02/25 03:19:44;;;;;;;7.80;3.53;;;2.10;99.90;;;;;;5049897;28;20473;-76
2023/02/25 03:22:18;;;;;;;9.05;4.38;;;2.10;99.90;;;;;;5064216;28;20032;-77
2023/02/25 03:24:56;;;;;;;5.00;3.53;;;2.10;99.90;;;;;;5068491;28;20056;-77
2023/02/25 03:27:27;;;;;;;9.75;3.88;;;2.00;99.90;;;;;;5065914;28;20025;-77
2023/02/25 03:30:14;;;;;;;8.77;3.50;;;1.90;99.90;;;;;;5084970;28;20032;-76
2023/02/25 03:32:44;;;;;;;8.82;3.78;;;1.90;99.90;;;;;;5068489;28;20041;-77
2023/02/25 03:35:10;;;;;;;11.20;3.63;;;1.90;99.90;;;;;;5071081;28;20110;-77
2023/02/25 03:37:40;;;;;;;11.18;3.60;;;1.80;99.90;;;;;;5084736;28;20032;-77
2023/02/25 03:40:13;;;;;;;5.95;2.78;;;1.80;99.90;;;;;;5070456;28;20033;-77
2023/02/25 03:42:45;;;;;;;8.38;2.80;;;1.70;99.90;;;;;;5068227;28;20492;-77
2023/02/25 03:45:12;;;;;;;9.43;3.38;;;1.80;99.90;;;;;;5068172;28;20043;-76
2023/02/25 03:47:39;;;;;;;7.55;2.55;;;1.70;99.90;;;;;;5069138;28;20432;-77
2023/02/25 03:50:21;;;;;;;9.35;2.58;;;1.70;99.90;;;;;;5067657;28;20400;-77
2023/02/25 03:52:52;;;;;;;5.97;2.92;;;1.70;99.90;;;;;;5049207;28;20111;-77
2023/02/25 03:55:45;;;;;;;5.30;2.63;;;1.70;99.90;;;;;;5058720;28;20036;-77
2023/02/25 03:58:11;;;;;;;8.25;3.38;;;1.70;99.90;;;;;;5069353;28;20028;-77
2023/02/25 04:00:39;;;;;;;6.95;2.75;;;1.70;99.90;;;;;;5069587;28;20095;-77
2023/02/25 04:03:05;;;;;;;9.20;2.80;;;1.70;99.90;;;;;;5069008;28;20037;-76
2023/02/25 04:05:31;;;;;;;5.63;2.40;;;1.70;99.90;;;;;;5052837;28;20520;-77
2023/02/25 04:07:58;;;;;;;8.13;2.90;;;1.70;99.90;;;;;;5064673;28;20028;-77
2023/02/25 04:10:27;;;;;;;7.25;2.60;;;1.70;99.90;;;;;;5066635;28;20081;-76
2023/02/25 04:12:53;;;;;;;6.45;2.80;;;1.80;99.90;;;;;;5066859;28;20104;-77
2023/02/25 04:15:19;;;;;;;5.60;2.10;;;1.80;99.90;;;;;;5068575;28;20391;-77
2023/02/25 04:17:46;;;;;;;7.15;2.10;;;1.80;99.90;;;;;;5064359;28;20077;-77
2023/02/25 04:20:15;;;;;;;3.92;1.80;;;1.90;99.90;;;;;;5069410;28;20110;-77
2023/02/25 04:22:41;;;;;;;6.22;2.40;;;1.80;99.90;;;;;;5052196;28;20040;-77
2023/02/25 04:25:07;;;;;;;8.18;1.83;;;1.80;99.90;;;;;;5066013;28;20505;-77
2023/02/25 04:27:33;;;;;;;7.07;2.97;;;1.80;99.90;;;;;;5070368;28;20028;-76
2023/02/25 04:29:58;;;;;;;5.95;1.98;;;1.80;99.90;;;;;;5069322;28;20082;-78
2023/02/25 04:32:24;;;;;;;5.60;2.35;;;1.80;99.90;;;;;;5070520;28;20017;-76
2023/02/25 04:34:50;;;;;;;7.10;1.80;;;1.90;99.90;;;;;;5070469;28;20052;-77
2023/02/25 04:37:16;;;;;;;6.78;2.20;;;1.90;99.90;;;;;;5068308;28;20488;-77
2023/02/25 04:39:42;;;;;;;7.03;2.20;;;1.90;99.90;;;;;;5065361;28;20040;-77
2023/02/25 04:42:08;;;;;;;8.40;1.92;;;1.80;99.90;;;;;;5062200;28;20024;-76
2023/02/25 04:44:34;;;;;;;8.35;2.10;;;1.90;99.90;;;;;;5067778;28;20025;-77
2023/02/25 04:47:00;;;;;;;5.47;1.73;;;1.90;99.90;;;;;;5061050;28;20109;-77
2023/02/25 04:49:26;;;;;;;5.35;1.60;;;1.90;99.90;;;;;;5069517;28;20040;-76
2023/02/25 04:51:52;;;;;;;10.73;2.10;;;1.90;99.90;;;;;;5051591;28;20029;-78
2023/02/25 04:54:19;;;;;;;7.00;1.63;;;1.90;99.90;;;;;;5071052;28;20027;-77
2023/02/25 04:56:45;;;;;;;10.55;2.35;;;1.90;99.90;;;;;;5069870;28;20033;-76
2023/02/25 04:59:11;;;;;;;11.00;2.78;;;1.90;99.90;;;;;;5070310;28;20354;-77
2023/02/25 05:01:38;;;;;;;10.35;2.47;;;1.90;99.90;;;;;;5070465;28;20036;-77
2023/02/25 05:04:04;;;;;;;9.98;1.90;;;1.90;99.90;;;;;;5070715;28;20028;-77
2023/02/25 05:06:30;;;;;;;5.43;2.13;;;1.90;99.90;;;;;;5062330;28;20028;-77
2023/02/25 05:08:57;;;;;;;5.45;2.00;;;1.90;99.90;;;;;;5059756;28;20035;-77
2023/02/25 05:11:25;;;;;;;6.65;2.10;;;1.90;99.90;;;;;;5067215;28;20086;-76
2023/02/25 05:13:51;;;;;;;4.97;2.20;;;1.90;99.90;;;;;;5069202;28;20032;-76
2023/02/25 05:16:18;;;;;;;7.28;1.92;;;1.90;99.90;;;;;;5068541;28;20482;-77
2023/02/25 05:18:45;;;;;;;7.63;2.30;;;1.90;99.90;;;;;;5069987;28;20039;-77
2023/02/25 05:21:17;;;;;;;7.53;1.70;;;1.90;99.90;;;;;;5051844;28;20025;-77
2023/02/25 05:23:44;;;;;;;7.00;2.20;;;1.90;99.90;;;;;;5068093;28;20044;-77
2023/02/25 05:26:10;;;;;;;7.10;2.00;;;1.90;99.90;;;;;;5068170;28;20058;-76
2023/02/25 05:28:36;;;;;;;5.82;2.20;;;1.90;99.90;;;;;;5069487;28;20435;-77
2023/02/25 05:31:07;;;;;;;11.57;2.15;;;1.90;99.90;;;;;;5071250;28;20067;-76
2023/02/25 05:33:35;;;;;;;5.90;1.70;;;2.00;99.90;;;;;;5071404;28;20469;-76
2023/02/25 05:36:03;;;;;;;4.65;1.80;;;1.90;99.90;;;;;;5072269;28;20031;-76
2023/02/25 05:38:29;;;;;;;7.10;2.25;;;2.00;99.90;;;;;;5073406;28;20103;-77
2023/02/25 05:40:57;;;;;;;12.43;2.25;;;2.00;99.90;;;;;;5073361;28;20066;-77
2023/02/25 05:43:23;;;;;;;5.05;2.22;;;2.00;99.90;;;;;;5073024;28;21031;-76
2023/02/25 05:45:54;;;;;;;8.00;2.00;;;1.90;99.90;;;;;;5070263;28;20024;-77
2023/02/25 05:48:20;;;;;;;10.50;2.05;;;1.90;99.90;;;;;;5067838;28;20108;-77
2023/02/25 05:50:49;;;;;;;5.70;2.10;;;1.90;99.90;;;;;;5064695;28;20032;-76
2023/02/25 05:53:18;;;;;;;5.05;2.58;;;1.90;99.90;;;;;;5071177;28;20029;-77
2023/02/25 05:55:45;;;;;;;7.35;1.90;;;1.90;99.90;;;;;;5067300;28;20036;-77
2023/02/25 05:58:11;;;;;;;11.27;2.28;;;1.90;99.90;;;;;;5071860;28;20615;-76
2023/02/25 06:00:38;;;;;;;5.60;1.50;;;1.90;99.90;;;;;;5073094;28;20048;-77
2023/02/25 06:03:04;;;;;;;6.03;2.20;;;1.90;99.90;;;;;;5068215;28;20098;-77
2023/02/25 06:05:30;;;;;;;7.53;2.17;;;1.90;99.90;;;;;;5072551;28;20029;-77
2023/02/25 06:07:57;;;;;;;6.53;1.95;;;1.90;99.90;;;;;;5069432;28;20070;-76
2023/02/25 06:10:24;;;;;;;8.07;2.75;;;1.90;99.90;;;;;;5066960;28;20047;-76
2023/02/25 06:12:50;;;;;;;5.78;1.70;;;1.90;99.90;;;;;;5066878;28;20392;-77
2023/02/25 06:15:16;;;;;;;7.30;2.25;;;1.90;99.90;;;;;;5070015;28;20029;-76
2023/02/25 06:17:42;;;;;;;6.53;1.95;;;1.90;99.90;;;;;;5072131;28;20040;-77
2023/02/25 06:20:09;;;;;;;5.60;2.10;;;1.90;99.90;;;;;;5071486;28;20037;-77
2023/02/25 06:22:35;;;;;;;9.98;2.20;;;1.90;99.90;;;;;;5064106;28;20404;-76
2023/02/25 06:25:01;;;;;;;9.27;2.45;;;1.90;99.90;;;;;;5066812;28;20033;-77
2023/02/25 06:27:28;;;;;;;4.90;2.08;;;1.90;99.90;;;;;;5063901;28;20024;-77
2023/02/25 06:29:54;;;;;;;12.32;2.33;;;1.90;99.90;;;;;;5063381;28;20040;-76
2023/02/25 06:32:20;;;;;;;6.55;2.13;;;1.90;99.90;;;;;;5067632;28;20463;-77
2023/02/25 06:34:46;;;;;;;6.28;2.28;;;1.90;99.90;;;;;;5070506;28;20104;-76
2023/02/25 06:37:12;;;;;;;6.53;1.90;;;1.90;99.90;;;;;;5068715;28;20032;-76
2023/02/25 06:39:41;;;;;;;5.15;2.22;;;1.90;99.90;;;;;;5070627;28;20041;-77
2023/02/25 06:42:08;;;;;;;5.72;1.98;;;1.90;99.90;;;;;;5071295;28;20071;-76
2023/02/25 06:44:33;;;;;;;7.80;2.25;;;1.90;99.90;;;;;;5072062;28;20024;-76
2023/02/25 06:46:59;;;;;;;4.05;2.38;;;1.90;99.90;;;;;;5072369;28;20047;-77
2023/02/25 06:49:25;;;;;;;5.07;2.20;;;1.90;99.90;;;;;;5054102;28;20033;-78
2023/02/25 06:51:51;;;;;;;6.68;2.63;;;1.90;99.90;;;;;;5071884;28;20362;-76
2023/02/25 06:54:17;;;;;;;5.72;2.22;;;2.00;99.90;;;;;;5063292;28;20032;-77
2023/02/25 06:56:43;;;;;;;6.38;2.08;;;2.00;99.90;;;;;;5063484;28;20032;-77
2023/02/25 06:59:09;;;;;;;8.23;2.47;;;2.00;99.90;;;;;;5065760;28;20028;-76
2023/02/25 07:01:36;;;;;;;7.18;2.60;;;2.00;99.90;;;;;;5064417;28;20028;-77
2023/02/25 07:04:03;;;;;;;7.07;2.25;;;2.10;99.90;;;;;;5061589;28;20033;-77
2023/02/25 07:06:29;;;;;;;7.32;2.40;;;2.10;99.90;;;;;;5066130;28;20044;-76
2023/02/25 07:08:55;;;;;;;7.90;2.78;;;2.10;99.90;;;;;;5065732;28;20044;-76
2023/02/25 07:11:24;;;;;;;9.30;2.60;;;2.10;99.90;;;;;;5066304;28;20646;-76
2023/02/25 07:13:51;;;;;;;8.30;2.90;;;2.20;99.90;;;;;;5062485;28;20036;-77
2023/02/25 07:16:17;;;;;;;5.93;2.55;;;2.20;99.90;;;;;;5067426;28;20040;-76
2023/02/25 07:18:43;;;;;;;8.80;2.70;;;2.20;99.90;;;;;;5066867;28;20036;-77
2023/02/25 07:21:11;;;;;;;9.27;2.88;;;2.30;99.90;;;;;;5069382;28;20040;-77
2023/02/25 07:23:37;;;;;;;10.98;3.03;;;2.30;99.90;;;;;;5063283;28;20043;-77
2023/02/25 07:26:08;;;;;;;8.93;2.53;;;2.30;99.90;;;;;;5066601;28;20025;-77
2023/02/25 07:28:34;;;;;;;12.40;2.88;;;2.40;99.90;;;;;;5063622;28;20029;-76
2023/02/25 07:31:25;;;;;;;6.10;2.60;;;2.40;99.90;;;;;;5069685;28;20036;-77
2023/02/25 07:33:53;;;;;;;5.63;2.85;;;2.40;99.90;;;;;;5050734;28;20025;-77
2023/02/25 07:36:19;;;;;;;5.72;2.60;;;2.30;99.90;;;;;;5065827;28;20044;-77
2023/02/25 07:38:47;;;;;;;9.32;2.35;;;2.30;99.90;;;;;;5065454;28;20420;-77
2023/02/25 07:41:15;;;;;;;10.07;2.85;;;2.30;99.90;;;;;;5070080;28;20029;-77
2023/02/25 07:43:41;;;;;;;10.02;2.90;;;2.30;99.90;;;;;;5065586;28;20389;-77
2023/02/25 07:46:08;;;;;;;6.15;2.35;;;2.30;99.90;;;;;;5070567;28;20031;-76
2023/02/25 07:48:33;;;;;;;10.68;2.83;;;2.30;99.90;;;;;;5066273;28;20681;-77
2023/02/25 07:51:05;;;;;;;7.78;2.78;;;2.20;99.90;;;;;;5067536;28;20157;-77
2023/02/25 07:53:32;;;;;;;15.20;3.25;;;2.40;99.90;;;;;;5067152;28;20031;-77
2023/02/25 07:55:58;;;;;;;11.02;3.03;;;2.50;99.90;;;;;;5064984;28;20025;-77
2023/02/25 07:58:24;;;;;;;10.05;2.78;;;2.60;99.90;;;;;;5067915;28;20528;-76
2023/02/25 08:00:50;;;;;;;17.05;3.95;;;2.70;99.90;;;;;;5068741;28;20115;-76
2023/02/25 08:03:16;;;;;;;8.73;2.72;;;3.00;99.90;;;;;;5064775;28;20039;-76
2023/02/25 08:05:42;;;;;;;7.13;2.40;;;3.30;99.90;;;;;;5067263;28;20475;-76
2023/02/25 08:08:07;;;;;;;8.13;2.55;;;3.50;99.90;;;;;;5063594;28;20071;-77
2023/02/25 08:10:35;;;;;;;8.85;2.25;;;3.60;99.90;;;;;;5064853;28;20056;-76
2023/02/25 08:13:01;;;;;;;6.78;2.80;;;3.70;99.90;;;;;;5068046;28;20033;-77
2023/02/25 08:15:27;;;;;;;7.68;2.58;;;3.70;99.90;;;;;;5031174;28;20029;-77
2023/02/25 08:17:54;;;;;;;10.10;2.53;;;3.70;99.90;;;;;;5068707;28;20034;-77
2023/02/25 08:20:20;;;;;;;6.88;2.47;;;3.70;99.90;;;;;;5067297;28;20039;-77
2023/02/25 08:22:46;;;;;;;7.22;2.17;;;3.60;99.90;;;;;;5067251;28;20500;-77
2023/02/25 08:25:12;;;;;;;7.95;2.22;;;3.60;99.90;;;;;;5064932;28;20033;-76
2023/02/25 08:27:38;;;;;;;4.90;2.35;;;3.60;99.90;;;;;;5065653;28;20542;-75
2023/02/25 08:30:07;;;;;;;5.25;2.40;;;3.50;99.90;;;;;;5070820;28;20669;-77
2023/02/25 08:32:36;;;;;;;5.30;1.95;;;3.50;99.90;;;;;;5071077;28;20039;-76
2023/02/25 08:35:03;;;;;;;5.97;2.33;;;3.50;99.90;;;;;;5071069;28;20033;-77
2023/02/25 08:37:29;;;;;;;5.82;2.33;;;3.50;99.90;;;;;;5064228;28;20070;-77
2023/02/25 08:39:55;;;;;;;8.38;2.85;;;3.50;99.90;;;;;;5049562;28;20036;-76
2023/02/25 08:42:22;;;;;;;7.82;2.78;;;3.50;99.90;;;;;;5061851;28;20033;-77
2023/02/25 08:44:48;;;;;;;5.90;2.70;;;3.50;99.90;;;;;;5062934;28;20672;-76
2023/02/25 08:47:15;;;;;;;4.30;1.80;;;3.50;99.90;;;;;;5052362;28;20206;-76
2023/02/25 08:49:41;;;;;;;5.50;2.20;;;3.40;99.90;;;;;;5061189;28;20040;-76
2023/02/25 08:52:10;;;;;;;6.75;2.17;;;3.30;99.90;;;;;;5045658;28;20029;-77
2023/02/25 08:54:37;;;;;;;4.25;2.20;;;3.30;99.90;;;;;;5057811;28;20572;-76
2023/02/25 08:57:03;;;;;;;5.13;2.63;;;3.20;99.90;;;;;;5062003;28;20032;-76
2023/02/25 08:59:34;;;;;;;6.50;2.20;;;3.20;99.90;;;;;;5058144;28;20036;-76
2023/02/25 09:02:06;;;;;;;6.32;2.20;;;3.20;99.90;;;;;;5048032;28;20163;-76
2023/02/25 09:04:32;;;;;;;5.60;2.53;;;3.30;99.90;;;;;;5065951;28;20029;-76
2023/02/25 09:07:02;;;;;;;6.00;2.42;;;3.30;99.90;;;;;;5064665;28;20164;-77
2023/02/25 09:09:28;;;;;;;5.57;2.30;;;3.30;99.90;;;;;;5064223;28;20040;-77
2023/02/25 09:11:54;;;;;;;4.65;2.03;;;3.30;99.90;;;;;;5065160;28;20128;-76
2023/02/25 09:14:21;;;;;;;8.20;1.88;;;3.30;99.90;;;;;;5063566;28;20377;-77
2023/02/25 09:16:46;;;;;;;7.03;3.28;;;3.40;99.90;;;;;;5064580;28;20389;-76
2023/02/25 09:19:14;;;;;;;6.85;2.80;;;3.50;99.90;;;;;;5060945;28;20032;-77
2023/02/25 09:21:40;;;;;;;5.18;2.78;;;3.50;99.90;;;;;;5063010;28;20123;-76
2023/02/25 09:24:07;;;;;;;7.55;3.15;;;3.70;99.90;;;;;;5059772;28;20025;-77
2023/02/25 09:26:33;;;;;;;7.40;2.92;;;3.70;99.90;;;;;;5065193;28;20090;-77
2023/02/25 09:29:01;;;;;;;9.73;3.67;;;3.80;99.90;;;;;;5059509;28;20028;-75
2023/02/25 09:31:26;;;;;;;8.30;2.70;;;3.80;99.90;;;;;;5060257;28;20032;-76
2023/02/25 09:33:52;;;;;;;7.60;2.80;;;3.90;99.90;;;;;;5043051;28;20036;-77
2023/02/25 09:36:20;;;;;;;7.63;2.90;;;3.80;99.90;;;;;;5041218;28;20120;-76
2023/02/25 09:38:48;;;;;;;7.95;3.20;;;3.80;99.90;;;;;;5059865;28;20041;-77
2023/02/25 09:41:40;;;;;;;6.93;2.88;;;3.80;99.90;;;;;;5059575;28;20070;-76
2023/02/25 09:44:26;;;;;;;10.10;3.00;;;3.90;99.90;;;;;;5062060;28;20033;-76
2023/02/25 09:46:59;;;;;;;6.43;2.50;;;3.90;99.90;;;;;;5067755;28;20103;-77
2023/02/25 09:49:41;;;;;;;8.75;2.80;;;4.00;99.90;;;;;;5064295;28;20060;-77
2023/02/25 09:52:17;;;;;;;9.30;3.30;;;4.00;99.90;;;;;;5067041;28;20023;-77
2023/02/25 09:54:46;;;;;;;12.00;3.00;;;4.10;99.90;;;;;;5066457;28;20039;-76
2023/02/25 09:57:17;;;;;;;10.75;3.42;;;4.20;99.90;;;;;;5068451;28;20025;-77
2023/02/25 09:59:47;;;;;;;5.13;2.97;;;4.20;99.90;;;;;;5066685;28;20104;-76
2023/02/25 10:02:37;;;;;;;8.23;3.40;;;4.30;99.90;;;;;;5065883;28;20021;-76
2023/02/25 10:05:32;;;;;;;7.35;2.55;;;4.30;99.90;;;;;;5062789;28;20025;-76
2023/02/25 10:07:58;;;;;;;3.35;2.10;;;4.40;99.90;;;;;;5065940;28;20028;-76
2023/02/25 10:10:29;;;;;;;5.85;2.70;;;4.50;99.90;;;;;;5065414;28;20503;-75
2023/02/25 10:13:07;;;;;;;7.07;2.78;;;4.50;99.90;;;;;;5063779;28;20028;-76
2023/02/25 10:15:40;;;;;;;7.07;2.25;;;4.60;99.90;;;;;;5067873;28;20504;-77
2023/02/25 10:18:31;;;;;;;4.93;2.47;;;4.70;99.90;;;;;;5069257;28;20497;-76
2023/02/25 10:21:33;;;;;;;4.90;2.28;;;4.70;99.90;;;;;;5067346;28;20029;-76
2023/02/25 10:24:21;;;;;;;5.05;2.25;;;4.80;99.90;;;;;;5065954;28;20031;-75
2023/02/25 10:26:55;;;;;;;7.65;2.10;;;4.90;99.90;;;;;;5070747;28;20033;-76
2023/02/25 10:29:30;;;;;;;4.50;2.25;;;4.90;99.90;;;;;;5062386;28;20036;-76
2023/02/25 10:31:59;;;;;;;;;;;4.90;99.90;;;;;;5069018;28;20036;-76
2023/02/25 10:34:27;;;;;;;5.32;2.00;;;4.90;99.90;;;;;;5060377;28;19909;-76
2023/02/25 10:36:59;;;;;;;8.40;2.25;;;4.90;99.90;;;;;;5056840;28;20401;-76
2023/02/25 10:39:26;;;;;;;5.63;2.35;;;4.90;99.90;;;;;;5064265;28;20038;-77
2023/02/25 10:41:53;;;;;;;4.63;1.95;;;4.90;99.90;;;;;;5066471;28;20028;-76
2023/02/25 10:44:19;;;;;;;9.18;2.35;;;4.90;99.90;;;;;;5066507;28;20025;-78
2023/02/25 10:47:02;;;;;;;4.10;2.22;;;4.90;99.90;;;;;;5060641;28;20141;-77
2023/02/25 10:49:29;;;;;;;5.53;2.58;;;4.70;99.90;;;;;;5061109;28;20115;-78
2023/02/25 10:52:13;;;;;;;8.07;2.58;;;4.60;99.90;;;;;;5064917;28;20243;-76
2023/02/25 10:54:49;;;;;;;6.50;2.80;;;4.70;99.90;;;;;;5062464;28;20469;-77
2023/02/25 10:57:21;;;;;;;10.18;2.90;;;4.90;99.90;;;;;;5063608;28;20520;-77
2023/02/25 10:59:57;;;;;;;3.38;2.67;;;5.10;99.90;;;;;;5060061;28;20100;-77
2023/02/25 11:02:30;;;;;;;9.27;2.33;;;5.40;99.90;;;;;;5065822;28;20040;-77
2023/02/25 11:04:56;;;;;;;5.25;2.92;;;5.50;99.90;;;;;;5060131;28;20040;-78
2023/02/25 11:07:22;;;;;;;7.32;2.35;;;5.60;99.90;;;;;;5062919;28;20063;-77
2023/02/25 11:10:09;;;;;;;4.57;2.45;;;5.80;99.90;;;;;;5058415;28;20052;-77
2023/02/25 11:12:52;;;;;;;5.68;2.55;;;5.80;99.90;;;;;;5058380;28;20025;-77
2023/02/25 11:15:33;;;;;;;6.35;2.20;;;5.90;99.90;;;;;;5059907;28;20017;-78
2023/02/25 11:18:05;;;;;;;5.50;2.33;;;6.00;99.90;;;;;;5054346;28;20031;-77
2023/02/25 11:20:32;;;;;;;3.85;2.25;;;6.00;99.90;;;;;;5061001;28;20467;-77
2023/02/25 11:22:58;;;;;;;3.45;2.03;;;6.00;99.90;;;;;;5047061;28;20029;-77
2023/02/25 11:25:38;;;;;;;5.20;2.20;;;5.80;99.90;;;;;;5061352;28;20521;-77
2023/02/25 11:28:06;;;;;;;6.88;2.15;;;5.80;99.90;;;;;;5062730;28;20123;-76
2023/02/25 11:30:37;;;;;;;5.45;2.20;;;5.70;99.90;;;;;;5065428;28;20032;-76
2023/02/25 11:33:34;;;;;;;4.07;1.63;;;5.80;99.90;;;;;;5059151;28;20075;-78
2023/02/25 11:36:01;;;;;;;3.70;1.80;;;5.80;99.90;;;;;;5056687;28;20090;-76
2023/02/25 11:38:37;;;;;;;2.75;1.70;;;5.70;99.90;;;;;;5064637;28;20396;-77
2023/02/25 11:41:12;;;;;;;2.15;1.30;;;5.60;99.90;;;;;;5065316;28;20039;-76
2023/02/25 11:43:41;;;;;;;2.20;1.20;;;5.40;99.90;;;;;;5066629;28;20032;-76
2023/02/25 11:46:21;;;;;;;2.63;1.00;;;5.10;99.90;;;;;;5063256;28;20032;-77
2023/02/25 11:49:17;;;;;;;2.63;0.82;;;4.80;99.90;;;;;;5056853;28;20025;-76
2023/02/25 11:52:26;;;;;;;0.88;0.50;;;4.60;99.90;;;;;;5069415;28;20626;-76
2023/02/25 11:55:09;;;;;;;0.82;0.32;;;4.30;99.90;;;;;;5068217;28;20025;-76
2023/02/25 11:57:53;;;;;;;0.82;0.40;;;4.00;99.90;;;;;;5070025;28;20393;-76
2023/02/25 12:00:37;;;;;;;1.80;0.50;;;3.80;99.90;;;;;;5070643;28;20020;-76
2023/02/25 12:03:06;;;;;;;0.65;0.35;;;3.50;99.90;;;;;;5065669;28;20078;-76
2023/02/25 12:06:05;;;;;;;0.35;0.30;;;3.30;99.90;;;;;;5069301;28;20036;-76
2023/02/25 12:09:28;;;;;;;0.70;0.70;;;3.10;99.90;;;;;;5067519;28;20024;-76
2023/02/25 12:11:53;;;;;;;1.02;0.50;;;2.80;99.90;;;;;;5010617;28;20548;-76
2023/02/25 12:14:49;;;;;;;0.50;0.50;;;2.60;99.90;;;;;;5044281;28;20159;-77
2023/02/25 12:17:33;;;;;;;0.55;0.55;;;2.40;99.90;;;;;;5061799;28;20040;-77
2023/02/25 12:20:24;;;;;;;0.75;0.60;;;2.20;99.90;;;;;;5070037;28;20025;-75
2023/02/25 12:23:29;;;;;;;1.42;0.40;;;2.20;99.90;;;;;;5071099;28;20086;-77
2023/02/25 12:26:12;;;;;;;0.90;0.60;;;2.10;99.90;;;;;;5050529;28;20469;-76
2023/02/25 12:28:56;;;;;;;0.75;0.65;;;2.10;99.90;;;;;;5070788;28;20029;-77
2023/02/25 12:31:40;;;;;;;1.23;0.70;;;2.20;99.90;;;;;;5070235;28;20086;-77
2023/02/25 12:34:43;;;;;;;1.90;0.40;;;2.10;99.90;;;;;;5067498;28;20070;-78
2023/02/25 12:37:50;;;;;;;1.30;0.50;;;2.10;99.90;;;;;;5071161;28;20472;-77
2023/02/25 12:40:37;;;;;;;0.30;0.30;;;2.20;99.90;;;;;;5067777;28;20064;-76
2023/02/25 12:43:51;;;;;;;0.93;0.55;;;2.20;99.90;;;;;;5067145;28;20029;-76
2023/02/25 12:46:37;;;;;;;0.40;0.40;;;2.20;99.90;;;;;;5018887;28;20057;-78
2023/02/25 12:49:23;;;;;;;0.47;0.40;;;2.40;99.90;;;;;;5057875;28;20414;-78
2023/02/25 12:52:19;;;;;;;1.85;0.60;;;2.50;99.90;;;;;;5070879;28;20477;-78
2023/02/25 12:55:13;;;;;;;0.30;0.30;;;2.50;99.90;;;;;;5071474;28;20060;-77
2023/02/25 12:58:05;;;;;;;0.57;0.30;;;2.40;99.90;;;;;;5071583;28;20123;-78
2023/02/25 13:01:08;;;;;;;1.33;0.50;;;2.50;99.90;;;;;;5069789;28;20888;-78
2023/02/25 13:03:53;;;;;;;1.20;0.73;;;2.50;99.90;;;;;;5048569;28;20043;-77
2023/02/25 13:06:52;;;;;;;1.00;0.80;;;2.40;99.90;;;;;;5070022;28;20036;-77
2023/02/25 13:09:47;;;;;;;1.75;0.90;;;2.50;99.90;;;;;;5069959;28;20051;-77
2023/02/25 13:12:46;;;;;;;1.20;1.00;;;2.60;99.90;;;;;;5060998;28;20040;-77
2023/02/25 13:15:34;;;;;;;1.13;1.02;;;2.60;99.90;;;;;;5067613;28;20635;-77
2023/02/25 13:18:37;;;;;;;1.80;0.98;;;2.80;99.90;;;;;;5069063;28;20021;-76
2023/02/25 13:21:46;;;;;;;2.35;1.00;;;2.90;99.90;;;;;;5069686;28;20503;-77
2023/02/25 13:24:24;;;;;;;0.85;0.73;;;2.80;99.90;;;;;;5051172;28;20040;-78